sensor_id;sensor_type;location;lat;lon;timestamp;pressure;altitude;pressure_sealevel;temperature;humidity
53647;BME280;39550;52.230;5.194;2024-01-30T00:01:16;102440.84;;;5.28;93.82
53647;BME280;39550;52.230;5.194;2024-01-30T00:03:41;102442.53;;;5.28;93.32
53647;BME280;39550;52.230;5.194;2024-01-30T00:06:08;102433.91;;;5.26;93.56
53647;BME280;39550;52.230;5.194;2024-01-30T00:08:33;102421.84;;;5.23;93.89
53647;BME280;39550;52.230;5.194;2024-01-30T00:10:58;102433.28;;;5.30;93.32
53647;BME280;39550;52.230;5.194;2024-01-30T00:13:24;102436.72;;;5.31;93.23
53647;BME280;39550;52.230;5.194;2024-01-30T00:15:49;102430.72;;;5.30;93.85
53647;BME280;39550;52.230;5.194;2024-01-30T00:18:14;102433.28;;;5.30;93.23
53647;BME280;39550;52.230;5.194;2024-01-30T00:20:40;102435.03;;;5.31;93.84
53647;BME280;39550;52.230;5.194;2024-01-30T00:23:06;102426.16;;;5.24;93.84
53647;BME280;39550;52.230;5.194;2024-01-30T00:25:31;102433.19;;;5.28;93.35
53647;BME280;39550;52.230;5.194;2024-01-30T00:27:58;102427.28;;;5.29;94.06
53647;BME280;39550;52.230;5.194;2024-01-30T00:30:23;102429.94;;;5.31;93.67
53647;BME280;39550;52.230;5.194;2024-01-30T00:32:49;102431.63;;;5.31;94.02
53647;BME280;39550;52.230;5.194;2024-01-30T00:35:14;102425.59;;;5.30;94.15
53647;BME280;39550;52.230;5.194;2024-01-30T00:37:39;102429.94;;;5.31;93.18
53647;BME280;39550;52.230;5.194;2024-01-30T00:40:05;102435.03;;;5.31;94.05
53647;BME280;39550;52.230;5.194;2024-01-30T00:42:31;102426.50;;;5.31;93.75
53647;BME280;39550;52.230;5.194;2024-01-30T00:44:57;102422.09;;;5.28;93.53
53647;BME280;39550;52.230;5.194;2024-01-30T00:47:22;102433.28;;;5.30;93.58
53647;BME280;39550;52.230;5.194;2024-01-30T00:49:48;102424.81;;;5.31;93.53
53647;BME280;39550;52.230;5.194;2024-01-30T00:52:13;102424.81;;;5.31;93.89
53647;BME280;39550;52.230;5.194;2024-01-30T00:54:38;102422.25;;;5.31;93.06
53647;BME280;39550;52.230;5.194;2024-01-30T00:57:04;102423.03;;;5.30;93.34
53647;BME280;39550;52.230;5.194;2024-01-30T00:59:29;102423.94;;;5.31;93.65
53647;BME280;39550;52.230;5.194;2024-01-30T01:01:54;102420.50;;;5.30;94.22
53647;BME280;39550;52.230;5.194;2024-01-30T01:04:20;102423.03;;;5.30;93.66
53647;BME280;39550;52.230;5.194;2024-01-30T01:06:46;102422.09;;;5.28;93.52
53647;BME280;39550;52.230;5.194;2024-01-30T01:09:12;102411.09;;;5.29;93.38
53647;BME280;39550;52.230;5.194;2024-01-30T01:11:37;102405.00;;;5.27;94.06
53647;BME280;39550;52.230;5.194;2024-01-30T01:14:04;102402.50;;;5.28;94.12
53647;BME280;39550;52.230;5.194;2024-01-30T01:16:29;102388.72;;;5.25;93.47
53647;BME280;39550;52.230;5.194;2024-01-30T01:18:55;102395.75;;;5.29;93.82
53647;BME280;39550;52.230;5.194;2024-01-30T01:21:20;102386.31;;;5.28;93.64
53647;BME280;39550;52.230;5.194;2024-01-30T01:23:45;102400.84;;;5.29;93.31
53647;BME280;39550;52.230;5.194;2024-01-30T01:26:11;102407.72;;;5.30;93.06
53647;BME280;39550;52.230;5.194;2024-01-30T01:28:36;102405.97;;;5.29;93.16
53647;BME280;39550;52.230;5.194;2024-01-30T01:31:01;102406.84;;;5.29;94.11
53647;BME280;39550;52.230;5.194;2024-01-30T01:33:31;102405.97;;;5.29;93.14
53647;BME280;39550;52.230;5.194;2024-01-30T01:35:58;102403.41;;;5.29;93.80
53647;BME280;39550;52.230;5.194;2024-01-30T01:38:23;102410.25;;;5.30;93.73
53647;BME280;39550;52.230;5.194;2024-01-30T01:40:48;102408.59;;;5.31;93.41
53647;BME280;39550;52.230;5.194;2024-01-30T01:43:14;102405.97;;;5.29;92.97
53647;BME280;39550;52.230;5.194;2024-01-30T01:45:39;102406.84;;;5.29;93.34
53647;BME280;39550;52.230;5.194;2024-01-30T01:48:05;102405.06;;;5.28;92.95
53647;BME280;39550;52.230;5.194;2024-01-30T01:50:30;102406.69;;;5.26;93.88
53647;BME280;39550;52.230;5.194;2024-01-30T01:52:56;102405.00;;;5.27;94.06
53647;BME280;39550;52.230;5.194;2024-01-30T01:55:22;102385.00;;;5.20;93.33
53647;BME280;39550;52.230;5.194;2024-01-30T01:57:49;102400.66;;;5.26;93.97
53647;BME280;39550;52.230;5.194;2024-01-30T02:00:15;102390.44;;;5.26;93.20
53647;BME280;39550;52.230;5.194;2024-01-30T02:02:42;102396.47;;;5.26;93.38
53647;BME280;39550;52.230;5.194;2024-01-30T02:05:08;102388.72;;;5.25;93.34
53647;BME280;39550;52.230;5.194;2024-01-30T02:07:34;102391.25;;;5.25;93.53
53647;BME280;39550;52.230;5.194;2024-01-30T02:09:59;102406.59;;;5.25;93.33
53647;BME280;39550;52.230;5.194;2024-01-30T02:12:25;102407.38;;;5.24;94.11
53647;BME280;39550;52.230;5.194;2024-01-30T02:14:50;102404.03;;;5.25;93.23
53647;BME280;39550;52.230;5.194;2024-01-30T02:17:16;102387.03;;;5.25;93.70
53647;BME280;39550;52.230;5.194;2024-01-30T02:19:41;102381.03;;;5.25;93.70
53647;BME280;39550;52.230;5.194;2024-01-30T02:22:07;102390.28;;;5.23;93.51
53647;BME280;39550;52.230;5.194;2024-01-30T02:24:33;102394.69;;;5.25;93.35
53647;BME280;39550;52.230;5.194;2024-01-30T02:26:58;102394.69;;;5.25;93.18
53647;BME280;39550;52.230;5.194;2024-01-30T02:29:23;102379.19;;;5.22;93.94
53647;BME280;39550;52.230;5.194;2024-01-30T02:31:49;102388.72;;;5.25;93.33
53647;BME280;39550;52.230;5.194;2024-01-30T02:34:14;102401.50;;;5.25;93.61
53647;BME280;39550;52.230;5.194;2024-01-30T02:36:43;102400.66;;;5.26;93.83
53647;BME280;39550;52.230;5.194;2024-01-30T02:39:09;102393.00;;;5.26;93.33
53647;BME280;39550;52.230;5.194;2024-01-30T02:41:35;102371.59;;;5.24;93.69
53647;BME280;39550;52.230;5.194;2024-01-30T02:44:00;102360.59;;;5.25;93.58
53647;BME280;39550;52.230;5.194;2024-01-30T02:46:26;102354.50;;;5.23;92.92
53647;BME280;39550;52.230;5.194;2024-01-30T02:48:51;102368.25;;;5.25;92.24
53647;BME280;39550;52.230;5.194;2024-01-30T02:51:17;102380.22;;;5.26;92.79
53647;BME280;39550;52.230;5.194;2024-01-30T02:53:42;102362.34;;;5.26;92.87
53647;BME280;39550;52.230;5.194;2024-01-30T02:56:07;102369.22;;;5.27;93.66
53647;BME280;39550;52.230;5.194;2024-01-30T02:58:35;102359.78;;;5.26;93.42
53647;BME280;39550;52.230;5.194;2024-01-30T03:01:01;102364.09;;;5.27;93.01
53647;BME280;39550;52.230;5.194;2024-01-30T03:03:26;102358.03;;;5.25;92.42
53647;BME280;39550;52.230;5.194;2024-01-30T03:05:51;102355.47;;;5.25;92.33
53647;BME280;39550;52.230;5.194;2024-01-30T03:08:17;102361.47;;;5.25;93.10
53647;BME280;39550;52.230;5.194;2024-01-30T03:10:42;102361.53;;;5.27;93.21
53647;BME280;39550;52.230;5.194;2024-01-30T03:13:07;102361.53;;;5.27;92.36
53647;BME280;39550;52.230;5.194;2024-01-30T03:15:33;102363.22;;;5.26;93.17
53647;BME280;39550;52.230;5.194;2024-01-30T03:17:58;102356.44;;;5.27;92.25
53647;BME280;39550;52.230;5.194;2024-01-30T03:20:23;102358.19;;;5.28;92.08
53647;BME280;39550;52.230;5.194;2024-01-30T03:22:49;102344.28;;;5.23;92.54
53647;BME280;39550;52.230;5.194;2024-01-30T03:25:14;102342.06;;;5.29;92.33
53647;BME280;39550;52.230;5.194;2024-01-30T03:27:40;102350.44;;;5.26;92.14
53647;BME280;39550;52.230;5.194;2024-01-30T03:30:06;102342.72;;;5.25;92.97
53647;BME280;39550;52.230;5.194;2024-01-30T03:32:31;102330.72;;;5.24;92.94
53647;BME280;39550;52.230;5.194;2024-01-30T03:34:56;102329.84;;;5.23;93.08
53647;BME280;39550;52.230;5.194;2024-01-30T03:37:23;102317.78;;;5.21;92.94
53647;BME280;39550;52.230;5.194;2024-01-30T03:39:48;102317.84;;;5.22;92.97
53647;BME280;39550;52.230;5.194;2024-01-30T03:42:14;102316.16;;;5.23;92.83
53647;BME280;39550;52.230;5.194;2024-01-30T03:44:39;102317.94;;;5.24;92.33
53647;BME280;39550;52.230;5.194;2024-01-30T03:47:04;102309.91;;;5.18;92.26
53647;BME280;39550;52.230;5.194;2024-01-30T03:49:30;102321.28;;;5.23;92.11
53647;BME280;39550;52.230;5.194;2024-01-30T03:51:55;102323.91;;;5.24;92.28
53647;BME280;39550;52.230;5.194;2024-01-30T03:54:20;102329.94;;;5.25;92.18
53647;BME280;39550;52.230;5.194;2024-01-30T03:56:46;102326.47;;;5.24;92.64
53647;BME280;39550;52.230;5.194;2024-01-30T03:59:11;102318.56;;;5.20;92.97
53647;BME280;39550;52.230;5.194;2024-01-30T04:01:36;102322.25;;;5.25;93.04
53647;BME280;39550;52.230;5.194;2024-01-30T04:04:02;102324.72;;;5.23;92.88
53647;BME280;39550;52.230;5.194;2024-01-30T04:06:27;102327.38;;;5.25;93.40
53647;BME280;39550;52.230;5.194;2024-01-30T04:08:52;102332.47;;;5.25;93.04
53647;BME280;39550;52.230;5.194;2024-01-30T04:11:20;102342.72;;;5.25;92.54
53647;BME280;39550;52.230;5.194;2024-01-30T04:13:46;102333.25;;;5.24;92.77
53647;BME280;39550;52.230;5.194;2024-01-30T04:16:22;102329.09;;;5.26;92.67
53647;BME280;39550;52.230;5.194;2024-01-30T04:18:51;102326.38;;;5.23;92.29
53647;BME280;39550;52.230;5.194;2024-01-30T04:21:16;102327.38;;;5.25;93.18
53647;BME280;39550;52.230;5.194;2024-01-30T04:23:41;102318.88;;;5.26;93.50
53647;BME280;39550;52.230;5.194;2024-01-30T04:26:07;102322.25;;;5.25;93.15
53647;BME280;39550;52.230;5.194;2024-01-30T04:28:32;102313.47;;;5.20;92.57
53647;BME280;39550;52.230;5.194;2024-01-30T04:30:57;102318.00;;;5.25;93.42
53647;BME280;39550;52.230;5.194;2024-01-30T04:33:23;102309.47;;;5.25;93.08
53647;BME280;39550;52.230;5.194;2024-01-30T04:35:48;102312.03;;;5.25;92.74
53647;BME280;39550;52.230;5.194;2024-01-30T04:38:13;102311.06;;;5.23;92.98
53647;BME280;39550;52.230;5.194;2024-01-30T04:40:40;102300.03;;;5.24;93.06
53647;BME280;39550;52.230;5.194;2024-01-30T04:43:05;102303.38;;;5.23;93.01
53647;BME280;39550;52.230;5.194;2024-01-30T04:45:30;102301.81;;;5.25;92.80
53647;BME280;39550;52.230;5.194;2024-01-30T04:47:56;102291.50;;;5.23;92.71
53647;BME280;39550;52.230;5.194;2024-01-30T04:50:21;102298.28;;;5.23;92.52
53647;BME280;39550;52.230;5.194;2024-01-30T04:52:46;102306.72;;;5.22;93.05
53647;BME280;39550;52.230;5.194;2024-01-30T04:55:12;102297.97;;;5.17;93.01
53647;BME280;39550;52.230;5.194;2024-01-30T04:57:37;102306.72;;;5.22;93.43
53647;BME280;39550;52.230;5.194;2024-01-30T05:00:03;102303.38;;;5.23;92.55
53647;BME280;39550;52.230;5.194;2024-01-30T05:02:28;102295.66;;;5.21;93.42
53647;BME280;39550;52.230;5.194;2024-01-30T05:04:54;102298.28;;;5.23;92.25
53647;BME280;39550;52.230;5.194;2024-01-30T05:07:19;102298.13;;;5.20;92.71
53647;BME280;39550;52.230;5.194;2024-01-30T05:09:46;102298.13;;;5.20;92.80
53647;BME280;39550;52.230;5.194;2024-01-30T05:12:12;102297.34;;;5.21;93.21
53647;BME280;39550;52.230;5.194;2024-01-30T05:14:37;102289.66;;;5.21;93.31
53647;BME280;39550;52.230;5.194;2024-01-30T05:17:03;102278.94;;;5.11;93.18
53647;BME280;39550;52.230;5.194;2024-01-30T05:19:28;102293.88;;;5.20;93.36
53647;BME280;39550;52.230;5.194;2024-01-30T05:21:55;102290.53;;;5.21;93.56
53647;BME280;39550;52.230;5.194;2024-01-30T05:24:21;102293.00;;;5.20;92.06
53647;BME280;39550;52.230;5.194;2024-01-30T05:26:46;102298.13;;;5.20;92.20
53647;BME280;39550;52.230;5.194;2024-01-30T05:29:13;102293.88;;;5.20;92.82
53647;BME280;39550;52.230;5.194;2024-01-30T05:31:38;102293.00;;;5.20;92.52
53647;BME280;39550;52.230;5.194;2024-01-30T05:34:04;102297.41;;;5.22;92.48
53647;BME280;39550;52.230;5.194;2024-01-30T05:36:29;102293.09;;;5.21;93.08
53647;BME280;39550;52.230;5.194;2024-01-30T05:38:55;102285.19;;;5.17;92.26
53647;BME280;39550;52.230;5.194;2024-01-30T05:41:22;102299.06;;;5.22;92.57
53647;BME280;39550;52.230;5.194;2024-01-30T05:43:47;102288.06;;;5.23;92.91
53647;BME280;39550;52.230;5.194;2024-01-30T05:46:13;102287.91;;;5.20;92.58
53647;BME280;39550;52.230;5.194;2024-01-30T05:48:38;102291.41;;;5.22;92.81
53647;BME280;39550;52.230;5.194;2024-01-30T05:51:06;102287.91;;;5.20;93.09
53647;BME280;39550;52.230;5.194;2024-01-30T05:53:34;102294.78;;;5.21;92.58
53647;BME280;39550;52.230;5.194;2024-01-30T05:56:01;102293.88;;;5.20;93.20
53647;BME280;39550;52.230;5.194;2024-01-30T05:58:27;102290.53;;;5.21;92.59
53647;BME280;39550;52.230;5.194;2024-01-30T06:00:52;102299.88;;;5.21;92.55
53647;BME280;39550;52.230;5.194;2024-01-30T06:03:18;102299.88;;;5.21;93.07
53647;BME280;39550;52.230;5.194;2024-01-30T06:05:43;102296.50;;;5.22;93.50
53647;BME280;39550;52.230;5.194;2024-01-30T06:08:08;102306.72;;;5.22;92.58
53647;BME280;39550;52.230;5.194;2024-01-30T06:10:33;102307.63;;;5.22;92.44
53647;BME280;39550;52.230;5.194;2024-01-30T06:12:59;102299.06;;;5.22;92.60
53647;BME280;39550;52.230;5.194;2024-01-30T06:15:25;102298.28;;;5.23;93.27
53647;BME280;39550;52.230;5.194;2024-01-30T06:17:51;102295.72;;;5.23;92.28
53647;BME280;39550;52.230;5.194;2024-01-30T06:20:16;102290.53;;;5.21;92.84
53647;BME280;39550;52.230;5.194;2024-01-30T06:22:42;102298.44;;;5.26;93.24
53647;BME280;39550;52.230;5.194;2024-01-30T06:25:07;102295.09;;;5.27;92.97
53647;BME280;39550;52.230;5.194;2024-01-30T06:27:32;102299.50;;;5.29;92.06
53647;BME280;39550;52.230;5.194;2024-01-30T06:29:58;102297.78;;;5.30;92.31
53647;BME280;39550;52.230;5.194;2024-01-30T06:32:23;102295.25;;;5.30;91.90
53647;BME280;39550;52.230;5.194;2024-01-30T06:34:50;102291.75;;;5.28;92.99
53647;BME280;39550;52.230;5.194;2024-01-30T06:37:15;102291.75;;;5.28;93.18
53647;BME280;39550;52.230;5.194;2024-01-30T06:39:41;102301.97;;;5.28;92.84
53647;BME280;39550;52.230;5.194;2024-01-30T06:42:06;102309.63;;;5.28;92.42
53647;BME280;39550;52.230;5.194;2024-01-30T06:44:32;102305.31;;;5.27;92.83
53647;BME280;39550;52.230;5.194;2024-01-30T06:46:57;102310.41;;;5.27;92.93
53647;BME280;39550;52.230;5.194;2024-01-30T06:49:24;102301.63;;;5.22;92.97
53647;BME280;39550;52.230;5.194;2024-01-30T06:51:49;102307.78;;;5.25;92.39
53647;BME280;39550;52.230;5.194;2024-01-30T06:54:14;102315.53;;;5.27;92.42
53647;BME280;39550;52.230;5.194;2024-01-30T06:56:40;102314.75;;;5.28;92.75
53647;BME280;39550;52.230;5.194;2024-01-30T06:59:05;102313.06;;;5.28;93.11
53647;BME280;39550;52.230;5.194;2024-01-30T07:01:31;102305.47;;;5.30;93.01
53647;BME280;39550;52.230;5.194;2024-01-30T07:03:57;102309.63;;;5.28;92.44
53647;BME280;39550;52.230;5.194;2024-01-30T07:06:23;102289.66;;;5.21;92.53
53647;BME280;39550;52.230;5.194;2024-01-30T07:08:49;102312.34;;;5.31;93.31
53647;BME280;39550;52.230;5.194;2024-01-30T07:11:19;102312.34;;;5.31;93.12
53647;BME280;39550;52.230;5.194;2024-01-30T07:13:45;102318.50;;;5.35;92.67
53647;BME280;39550;52.230;5.194;2024-01-30T07:16:10;102307.25;;;5.48;94.29
53647;BME280;39550;52.230;5.194;2024-01-30T07:18:36;102308.38;;;5.53;94.72
53647;BME280;39550;52.230;5.194;2024-01-30T07:21:01;102313.31;;;5.50;94.15
53647;BME280;39550;52.230;5.194;2024-01-30T07:23:26;102321.78;;;5.49;93.85
53647;BME280;39550;52.230;5.194;2024-01-30T07:25:51;102318.25;;;5.46;93.36
53647;BME280;39550;52.230;5.194;2024-01-30T07:28:17;102317.31;;;5.44;93.60
53647;BME280;39550;52.230;5.194;2024-01-30T07:30:43;102317.31;;;5.44;93.44
53647;BME280;39550;52.230;5.194;2024-01-30T07:33:08;102324.72;;;5.40;93.96
53647;BME280;39550;52.230;5.194;2024-01-30T07:35:34;102324.50;;;5.35;94.60
53647;BME280;39550;52.230;5.194;2024-01-30T07:37:59;102326.25;;;5.36;93.64
53647;BME280;39550;52.230;5.194;2024-01-30T07:40:25;102333.84;;;5.35;93.76
53647;BME280;39550;52.230;5.194;2024-01-30T07:42:50;102333.03;;;5.36;94.49
53647;BME280;39550;52.230;5.194;2024-01-30T07:45:16;102336.41;;;5.35;93.46
53647;BME280;39550;52.230;5.194;2024-01-30T07:47:41;102344.94;;;5.35;93.34
53647;BME280;39550;52.230;5.194;2024-01-30T07:50:07;102339.84;;;5.35;93.30
53647;BME280;39550;52.230;5.194;2024-01-30T07:52:33;102345.81;;;5.36;93.28
53647;BME280;39550;52.230;5.194;2024-01-30T07:54:58;102342.38;;;5.35;93.83
53647;BME280;39550;52.230;5.194;2024-01-30T07:57:23;102344.16;;;5.36;93.25
53647;BME280;39550;52.230;5.194;2024-01-30T07:59:49;102343.38;;;5.37;94.12
53647;BME280;39550;52.230;5.194;2024-01-30T08:02:15;102349.25;;;5.36;93.24
53647;BME280;39550;52.230;5.194;2024-01-30T08:04:40;102349.19;;;5.35;93.56
53647;BME280;39550;52.230;5.194;2024-01-30T08:07:05;102351.75;;;5.35;93.74
53647;BME280;39550;52.230;5.194;2024-01-30T08:09:31;102348.47;;;5.37;93.71
53647;BME280;39550;52.230;5.194;2024-01-30T08:11:56;102349.34;;;5.38;93.24
53647;BME280;39550;52.230;5.194;2024-01-30T08:14:22;102350.22;;;5.38;93.64
53647;BME280;39550;52.230;5.194;2024-01-30T08:16:47;102353.59;;;5.37;93.44
53647;BME280;39550;52.230;5.194;2024-01-30T08:19:14;102350.22;;;5.38;94.18
53647;BME280;39550;52.230;5.194;2024-01-30T08:21:39;102356.22;;;5.39;94.12
53647;BME280;39550;52.230;5.194;2024-01-30T08:24:05;102364.69;;;5.38;93.56
53647;BME280;39550;52.230;5.194;2024-01-30T08:26:34;102355.31;;;5.38;93.97
53647;BME280;39550;52.230;5.194;2024-01-30T08:29:00;102363.00;;;5.38;93.59
53647;BME280;39550;52.230;5.194;2024-01-30T08:31:26;102358.78;;;5.39;93.74
53647;BME280;39550;52.230;5.194;2024-01-30T08:33:52;102357.09;;;5.39;93.42
53647;BME280;39550;52.230;5.194;2024-01-30T08:36:18;102360.50;;;5.40;94.15
53647;BME280;39550;52.230;5.194;2024-01-30T08:38:43;102346.56;;;5.33;94.17
53647;BME280;39550;52.230;5.194;2024-01-30T08:41:09;102360.63;;;5.41;93.60
53647;BME280;39550;52.230;5.194;2024-01-30T08:43:34;102353.66;;;5.39;94.09
53647;BME280;39550;52.230;5.194;2024-01-30T08:46:01;102363.25;;;5.43;94.26
53647;BME280;39550;52.230;5.194;2024-01-30T08:48:27;102355.41;;;5.40;93.59
53647;BME280;39550;52.230;5.194;2024-01-30T08:50:52;102364.13;;;5.43;93.60
53647;BME280;39550;52.230;5.194;2024-01-30T08:53:17;102353.91;;;5.43;93.85
53647;BME280;39550;52.230;5.194;2024-01-30T08:55:43;102365.91;;;5.44;93.48
53647;BME280;39550;52.230;5.194;2024-01-30T08:58:09;102360.78;;;5.44;93.79
53647;BME280;39550;52.230;5.194;2024-01-30T09:00:34;102366.75;;;5.45;94.32
53647;BME280;39550;52.230;5.194;2024-01-30T09:02:59;102362.53;;;5.45;93.89
53647;BME280;39550;52.230;5.194;2024-01-30T09:05:25;102359.16;;;5.46;94.14
53647;BME280;39550;52.230;5.194;2024-01-30T09:07:50;102365.19;;;5.47;94.30
53647;BME280;39550;52.230;5.194;2024-01-30T09:10:15;102369.41;;;5.46;93.84
53647;BME280;39550;52.230;5.194;2024-01-30T09:12:41;102369.41;;;5.46;94.38
53647;BME280;39550;52.230;5.194;2024-01-30T09:15:06;102371.16;;;5.48;94.58
53647;BME280;39550;52.230;5.194;2024-01-30T09:17:32;102371.16;;;5.48;94.42
53647;BME280;39550;52.230;5.194;2024-01-30T09:19:58;102359.00;;;5.43;93.92
53647;BME280;39550;52.230;5.194;2024-01-30T09:22:23;102377.22;;;5.50;94.23
53647;BME280;39550;52.230;5.194;2024-01-30T09:24:49;102387.44;;;5.50;94.01
53647;BME280;39550;52.230;5.194;2024-01-30T09:27:14;102381.53;;;5.51;94.08
53647;BME280;39550;52.230;5.194;2024-01-30T09:29:40;102376.44;;;5.51;94.40
53647;BME280;39550;52.230;5.194;2024-01-30T09:32:05;102386.66;;;5.51;94.53
53647;BME280;39550;52.230;5.194;2024-01-30T09:34:31;102391.63;;;5.48;94.02
53647;BME280;39550;52.230;5.194;2024-01-30T09:36:58;102393.53;;;5.52;94.41
53647;BME280;39550;52.230;5.194;2024-01-30T09:39:24;102379.63;;;5.46;94.18
53647;BME280;39550;52.230;5.194;2024-01-30T09:44:40;102400.59;;;5.56;94.79
53647;BME280;39550;52.230;5.194;2024-01-30T09:47:11;102398.81;;;5.55;94.16
53647;BME280;39550;52.230;5.194;2024-01-30T09:49:37;102398.03;;;5.56;94.72
53647;BME280;39550;52.230;5.194;2024-01-30T09:52:05;102395.47;;;5.56;94.65
53647;BME280;39550;52.230;5.194;2024-01-30T09:54:31;102391.94;;;5.54;94.23
53647;BME280;39550;52.230;5.194;2024-01-30T09:56:57;102394.69;;;5.57;94.13
53647;BME280;39550;52.230;5.194;2024-01-30T09:59:22;102398.97;;;5.58;94.53
53647;BME280;39550;52.230;5.194;2024-01-30T10:01:49;102416.09;;;5.59;94.23
53647;BME280;39550;52.230;5.194;2024-01-30T10:04:15;102416.09;;;5.59;94.50
53647;BME280;39550;52.230;5.194;2024-01-30T10:06:40;102412.72;;;5.60;95.15
53647;BME280;39550;52.230;5.194;2024-01-30T10:09:06;102406.75;;;5.59;94.50
53647;BME280;39550;52.230;5.194;2024-01-30T10:11:32;102394.03;;;5.61;94.20
53647;BME280;39550;52.230;5.194;2024-01-30T10:13:57;102406.00;;;5.62;94.43
53647;BME280;39550;52.230;5.194;2024-01-30T10:16:22;102402.34;;;5.57;94.86
53647;BME280;39550;52.230;5.194;2024-01-30T10:18:48;102409.53;;;5.64;95.05
53647;BME280;39550;52.230;5.194;2024-01-30T10:21:14;102417.22;;;5.64;94.21
53647;BME280;39550;52.230;5.194;2024-01-30T10:23:39;102408.75;;;5.65;94.97
53647;BME280;39550;52.230;5.194;2024-01-30T10:26:05;102402.81;;;5.66;94.33
53647;BME280;39550;52.230;5.194;2024-01-30T10:28:32;102398.59;;;5.67;94.70
53647;BME280;39550;52.230;5.194;2024-01-30T10:30:58;102394.03;;;5.61;94.73
53647;BME280;39550;52.230;5.194;2024-01-30T10:33:25;102414.81;;;5.67;94.82
53647;BME280;39550;52.230;5.194;2024-01-30T10:35:51;102419.94;;;5.67;94.95
53647;BME280;39550;52.230;5.194;2024-01-30T10:38:19;102418.16;;;5.66;94.87
53647;BME280;39550;52.230;5.194;2024-01-30T10:40:45;102431.22;;;5.71;95.07
53647;BME280;39550;52.230;5.194;2024-01-30T10:43:12;102426.97;;;5.71;94.55
53647;BME280;39550;52.230;5.194;2024-01-30T10:45:44;102411.63;;;5.71;95.24
53647;BME280;39550;52.230;5.194;2024-01-30T10:48:13;102433.84;;;5.72;95.15
53647;BME280;39550;52.230;5.194;2024-01-30T10:50:40;102426.97;;;5.71;95.34
53647;BME280;39550;52.230;5.194;2024-01-30T10:53:06;102440.56;;;5.70;94.49
53647;BME280;39550;52.230;5.194;2024-01-30T10:55:33;102437.28;;;5.73;95.38
53647;BME280;39550;52.230;5.194;2024-01-30T10:57:59;102444.88;;;5.71;94.69
53647;BME280;39550;52.230;5.194;2024-01-30T11:00:25;102446.72;;;5.74;95.39
53647;BME280;39550;52.230;5.194;2024-01-30T11:02:52;102452.78;;;5.76;95.06
53647;BME280;39550;52.230;5.194;2024-01-30T11:05:23;102455.97;;;5.72;95.67
53647;BME280;39550;52.230;5.194;2024-01-30T11:07:52;102457.09;;;5.77;94.83
53647;BME280;39550;52.230;5.194;2024-01-30T11:10:17;102463.13;;;5.77;95.58
53647;BME280;39550;52.230;5.194;2024-01-30T11:12:43;102459.75;;;5.78;95.33
53647;BME280;39550;52.230;5.194;2024-01-30T11:15:16;102453.06;;;5.80;95.11
53647;BME280;39550;52.230;5.194;2024-01-30T11:20:20;102460.72;;;5.80;96.13
53647;BME280;39550;52.230;5.194;2024-01-30T11:22:47;102450.78;;;5.70;95.91
53647;BME280;39550;52.230;5.194;2024-01-30T11:25:14;102465.91;;;5.82;95.47
53647;BME280;39550;52.230;5.194;2024-01-30T11:27:39;102451.44;;;5.83;95.36
53647;BME280;39550;52.230;5.194;2024-01-30T11:30:06;102467.63;;;5.82;95.43
53647;BME280;39550;52.230;5.194;2024-01-30T11:32:33;102454.63;;;5.78;95.66
53647;BME280;39550;52.230;5.194;2024-01-30T11:34:58;102466.78;;;5.83;95.44
53647;BME280;39550;52.230;5.194;2024-01-30T11:37:25;102466.78;;;5.83;95.56
53647;BME280;39550;52.230;5.194;2024-01-30T11:39:53;102469.34;;;5.83;95.66
53647;BME280;39550;52.230;5.194;2024-01-30T11:42:19;102459.94;;;5.82;96.21
53647;BME280;39550;52.230;5.194;2024-01-30T11:44:48;102463.13;;;5.77;95.64
53647;BME280;39550;52.230;5.194;2024-01-30T11:47:14;102466.78;;;5.83;96.01
53647;BME280;39550;52.230;5.194;2024-01-30T11:49:39;102477.22;;;5.86;95.77
53647;BME280;39550;52.230;5.194;2024-01-30T11:52:05;102466.00;;;5.84;95.68
53647;BME280;39550;52.230;5.194;2024-01-30T11:54:30;102485.03;;;5.89;95.80
53647;BME280;39550;52.230;5.194;2024-01-30T11:56:56;102486.00;;;5.91;95.01
53647;BME280;39550;52.230;5.194;2024-01-30T11:59:21;102444.09;;;5.72;95.04
53647;BME280;39550;52.230;5.194;2024-01-30T12:04:17;102404.47;;;5.49;95.25
53647;BME280;39550;52.230;5.194;2024-01-30T12:06:42;102487.75;;;5.92;94.87
53647;BME280;39550;52.230;5.194;2024-01-30T12:09:08;102497.69;;;5.86;95.23
53647;BME280;39550;52.230;5.194;2024-01-30T12:11:48;102496.78;;;5.85;95.45
53647;BME280;39550;52.230;5.194;2024-01-30T12:14:16;102489.09;;;5.85;95.82
53647;BME280;39550;52.230;5.194;2024-01-30T12:16:41;102477.56;;;5.77;95.32
53647;BME280;39550;52.230;5.194;2024-01-30T12:19:07;102489.19;;;5.87;95.19
53647;BME280;39550;52.230;5.194;2024-01-30T12:21:33;102498.38;;;5.83;96.14
53647;BME280;39550;52.230;5.194;2024-01-30T12:23:59;102494.84;;;5.81;95.13
53647;BME280;39550;52.230;5.194;2024-01-30T12:26:25;102498.47;;;5.85;95.73
53647;BME280;39550;52.230;5.194;2024-01-30T12:28:54;102494.28;;;5.87;95.21
53647;BME280;39550;52.230;5.194;2024-01-30T12:31:25;102498.38;;;5.83;95.23
53647;BME280;39550;52.230;5.194;2024-01-30T12:33:52;102487.44;;;5.86;95.10
53647;BME280;39550;52.230;5.194;2024-01-30T12:36:17;102500.31;;;5.87;95.09
53647;BME280;39550;52.230;5.194;2024-01-30T12:38:43;102501.97;;;5.87;95.18
53647;BME280;39550;52.230;5.194;2024-01-30T12:41:08;102510.63;;;5.89;95.60
53647;BME280;39550;52.230;5.194;2024-01-30T12:43:34;102508.16;;;5.90;95.27
53647;BME280;39550;52.230;5.194;2024-01-30T12:45:59;102504.72;;;5.90;95.94
53647;BME280;39550;52.230;5.194;2024-01-30T12:48:26;102505.75;;;5.93;95.09
53647;BME280;39550;52.230;5.194;2024-01-30T12:50:54;102503.09;;;5.92;94.91
53647;BME280;39550;52.230;5.194;2024-01-30T12:53:19;102510.16;;;5.96;95.00
53647;BME280;39550;52.230;5.194;2024-01-30T12:55:44;102509.28;;;5.95;95.50
53647;BME280;39550;52.230;5.194;2024-01-30T12:58:10;102506.81;;;5.97;95.75
53647;BME280;39550;52.230;5.194;2024-01-30T13:00:35;102506.81;;;5.97;94.59